createdAt,value
2022-09-20T00:01:15.884Z,12.00
2022-09-20T00:03:45.996Z,12.10
2022-09-20T00:06:15.511Z,12.20
2022-09-20T00:08:43.248Z,12.20
2022-09-20T00:11:15.445Z,12.30
2022-09-20T00:13:43.928Z,12.20
2022-09-20T00:16:16.623Z,12.20
2022-09-20T00:18:44.034Z,12.20
2022-09-20T00:21:20.612Z,12.20
2022-09-20T00:23:47.617Z,12.20
2022-09-20T00:26:14.786Z,12.10
2022-09-20T00:28:42.389Z,12.10
2022-09-20T00:31:09.159Z,12.10
2022-09-20T00:33:54.749Z,12.10
2022-09-20T00:36:21.720Z,12.10
2022-09-20T00:38:48.521Z,12.10
2022-09-20T00:41:15.474Z,12.10
2022-09-20T00:43:46.476Z,12.10
2022-09-20T00:46:28.840Z,12.00
2022-09-20T00:49:03.186Z,12.00
2022-09-20T00:51:35.250Z,11.90
2022-09-20T00:54:04.914Z,11.90
2022-09-20T00:56:34.847Z,11.90
2022-09-20T00:59:08.589Z,11.90
2022-09-20T01:01:36.437Z,11.90
2022-09-20T01:04:04.891Z,11.90
2022-09-20T01:06:33.846Z,11.90
2022-09-20T01:09:04.678Z,11.90
2022-09-20T01:11:31.880Z,12.00
2022-09-20T01:13:58.694Z,12.00
2022-09-20T01:16:26.902Z,12.00
2022-09-20T01:18:58.628Z,12.00
2022-09-20T01:21:26.931Z,12.00
2022-09-20T01:23:59.985Z,12.00
2022-09-20T01:27:05.862Z,12.00
2022-09-20T01:29:48.291Z,12.00
2022-09-20T01:32:19.942Z,12.00
2022-09-20T01:34:59.547Z,12.10
2022-09-20T01:37:46.745Z,12.00
2022-09-20T01:40:39.806Z,12.00
2022-09-20T01:43:32.480Z,12.00
2022-09-20T01:46:11.082Z,11.90
2022-09-20T01:48:39.574Z,11.80
2022-09-20T01:51:27.879Z,11.80
2022-09-20T01:54:37.297Z,11.70
2022-09-20T01:57:27.465Z,11.80
2022-09-20T02:00:20.361Z,11.70
2022-09-20T02:03:20.897Z,11.70
2022-09-20T02:06:15.339Z,11.60
2022-09-20T02:08:42.065Z,11.60
2022-09-20T02:11:18.243Z,11.70
2022-09-20T02:14:02.853Z,11.70
2022-09-20T02:16:57.000Z,11.60
2022-09-20T02:19:30.329Z,11.60
2022-09-20T02:22:18.969Z,11.60
2022-09-20T02:25:07.266Z,11.60
2022-09-20T02:28:09.275Z,11.50
2022-09-20T02:31:15.774Z,11.50
2022-09-20T02:34:13.909Z,11.40
2022-09-20T02:36:46.816Z,11.40
2022-09-20T02:39:22.050Z,11.30
2022-09-20T02:42:32.219Z,11.30
2022-09-20T02:45:10.598Z,11.30
2022-09-20T02:47:43.361Z,11.30
2022-09-20T02:50:40.948Z,11.30
2022-09-20T02:53:27.939Z,11.20
2022-09-20T02:56:01.022Z,11.20
2022-09-20T02:58:48.677Z,11.20
2022-09-20T03:01:24.271Z,11.10
2022-09-20T03:04:03.226Z,11.20
2022-09-20T03:06:48.780Z,11.20
2022-09-20T03:09:32.339Z,11.20
2022-09-20T03:12:17.956Z,11.20
2022-09-20T03:15:16.994Z,11.20
2022-09-20T03:17:46.738Z,11.20
2022-09-20T03:20:22.509Z,11.20
2022-09-20T03:23:10.267Z,11.20
2022-09-20T03:26:00.721Z,11.20
2022-09-20T03:28:57.310Z,11.20
2022-09-20T03:31:42.716Z,11.20
2022-09-20T03:34:15.523Z,11.30
2022-09-20T03:36:48.357Z,11.30
2022-09-20T03:40:01.598Z,11.30
2022-09-20T03:42:31.835Z,11.30
2022-09-20T03:45:13.840Z,11.30
2022-09-20T03:48:02.142Z,11.30
2022-09-20T03:50:59.874Z,11.30
2022-09-20T03:53:52.037Z,11.40
2022-09-20T03:56:46.563Z,11.40
2022-09-20T03:59:33.193Z,11.40
2022-09-20T04:02:32.353Z,11.50
2022-09-20T04:05:00.950Z,11.50
2022-09-20T04:07:45.693Z,11.50
2022-09-20T04:10:41.621Z,11.60
2022-09-20T04:13:16.149Z,11.60
2022-09-20T04:16:04.842Z,11.50
2022-09-20T04:19:09.134Z,11.50
2022-09-20T04:21:57.365Z,11.50
2022-09-20T04:24:30.152Z,11.40
2022-09-20T04:27:01.855Z,11.30
2022-09-20T04:29:49.246Z,11.40
2022-09-20T04:32:24.529Z,11.50
2022-09-20T04:35:35.915Z,11.50
2022-09-20T04:38:06.729Z,11.50
2022-09-20T04:40:36.647Z,11.50
2022-09-20T04:43:28.395Z,11.50
2022-09-20T04:46:10.274Z,11.50
2022-09-20T04:48:42.821Z,11.60
2022-09-20T04:51:18.284Z,11.60
2022-09-20T04:54:06.320Z,11.50
2022-09-20T04:56:42.221Z,11.60
2022-09-20T04:59:10.281Z,11.60
2022-09-20T05:01:55.712Z,11.60
2022-09-20T05:04:41.265Z,11.60
2022-09-20T05:07:58.683Z,11.60
2022-09-20T05:10:37.207Z,11.70
2022-09-20T05:13:30.037Z,11.80
2022-09-20T05:16:18.231Z,11.80
2022-09-20T05:18:57.912Z,11.80
2022-09-20T05:21:47.738Z,11.90
2022-09-20T05:24:38.614Z,12.00
2022-09-20T05:27:24.546Z,12.00
2022-09-20T05:30:07.074Z,12.10
2022-09-20T05:32:42.462Z,12.10
2022-09-20T05:35:15.041Z,12.10
2022-09-20T05:38:00.717Z,12.20
2022-09-20T05:40:59.977Z,12.20
2022-09-20T05:43:39.794Z,12.30
2022-09-20T05:46:18.813Z,12.30
2022-09-20T05:48:54.790Z,12.40
2022-09-20T05:51:33.583Z,12.40
2022-09-20T05:54:35.197Z,12.40
2022-09-20T05:57:23.535Z,12.40
2022-09-20T05:59:50.531Z,12.30
2022-09-20T06:02:24.181Z,12.40
2022-09-20T06:05:15.342Z,12.40
2022-09-20T06:07:54.133Z,12.20
2022-09-20T06:11:00.073Z,12.10
2022-09-20T06:13:35.577Z,12.10
2022-09-20T06:16:05.675Z,12.10
2022-09-20T06:18:47.931Z,12.10
2022-09-20T06:21:26.425Z,12.20
2022-09-20T06:23:58.741Z,12.20
2022-09-20T06:26:31.652Z,12.30
2022-09-20T06:29:10.479Z,12.20
2022-09-20T06:31:38.139Z,12.30
2022-09-20T06:34:13.175Z,12.40
2022-09-20T06:37:06.012Z,12.30
2022-09-20T06:40:16.032Z,12.20
2022-09-20T06:42:44.549Z,12.20
2022-09-20T06:45:11.516Z,12.20
2022-09-20T06:47:38.971Z,12.30
2022-09-20T06:50:06.410Z,12.30
2022-09-20T06:52:35.589Z,12.20
2022-09-20T06:55:07.413Z,12.30
2022-09-20T06:57:37.872Z,12.20
2022-09-20T07:00:06.935Z,12.30
2022-09-20T07:02:33.803Z,12.30
2022-09-20T07:05:00.662Z,12.40
2022-09-20T07:07:27.578Z,12.50
2022-09-20T07:09:54.427Z,12.60
2022-09-20T07:12:21.281Z,12.60
2022-09-20T07:14:48.095Z,12.50
2022-09-20T07:17:14.886Z,12.60
2022-09-20T07:19:41.666Z,12.50
2022-09-20T07:22:08.496Z,12.60
2022-09-20T07:24:35.318Z,12.60
2022-09-20T07:27:04.255Z,12.70
2022-09-20T07:29:31.544Z,12.70
2022-09-20T07:31:58.799Z,12.70
2022-09-20T07:34:26.371Z,12.60
2022-09-20T07:36:53.191Z,12.60
2022-09-20T07:39:20.152Z,12.70
2022-09-20T07:41:50.610Z,12.90
2022-09-20T07:44:21.560Z,13.00
2022-09-20T07:46:49.364Z,13.00
2022-09-20T07:49:16.179Z,12.80
2022-09-20T07:51:42.980Z,12.90
2022-09-20T07:54:09.833Z,12.80
2022-09-20T07:56:36.687Z,12.80
2022-09-20T07:59:03.992Z,12.80
2022-09-20T08:01:30.827Z,12.90
2022-09-20T08:03:57.604Z,12.90
2022-09-20T08:06:24.452Z,13.00
2022-09-20T08:08:54.454Z,13.10
2022-09-20T08:11:27.875Z,13.20
2022-09-20T08:14:11.313Z,13.10
2022-09-20T08:16:46.653Z,13.10
2022-09-20T08:19:18.885Z,13.10
2022-09-20T08:21:46.061Z,13.20
2022-09-20T08:24:13.573Z,13.30
2022-09-20T08:26:40.339Z,13.30
2022-09-20T08:29:07.194Z,13.30
2022-09-20T08:31:37.545Z,13.30
2022-09-20T08:34:09.644Z,13.30
2022-09-20T08:36:39.437Z,13.30
2022-09-20T08:42:13.045Z,13.20
2022-09-20T08:45:05.538Z,13.20
2022-09-20T08:47:40.063Z,13.20
2022-09-20T08:50:11.533Z,13.00
2022-09-20T08:52:40.754Z,13.10
2022-09-20T08:55:20.655Z,13.00
2022-09-20T08:57:55.526Z,13.00
2022-09-20T09:00:31.938Z,13.00
2022-09-20T09:03:04.693Z,13.10
2022-09-20T09:05:34.207Z,13.10
2022-09-20T09:08:16.144Z,13.20
2022-09-20T09:10:58.722Z,13.30
2022-09-20T09:13:51.429Z,13.40
2022-09-20T09:16:27.255Z,13.50
2022-09-20T09:18:57.795Z,13.40
2022-09-20T09:21:29.628Z,13.40
2022-09-20T09:24:04.480Z,13.40
2022-09-20T09:26:40.093Z,13.40
2022-09-20T09:29:28.332Z,13.50
2022-09-20T09:32:19.665Z,13.70
2022-09-20T09:34:46.438Z,13.70
2022-09-20T09:37:31.073Z,13.60
2022-09-20T09:40:10.471Z,13.50
2022-09-20T09:42:37.345Z,13.60
2022-09-20T09:45:27.175Z,13.40
2022-09-20T09:47:55.917Z,13.30
2022-09-20T09:50:32.219Z,13.20
2022-09-20T09:53:09.471Z,13.20
2022-09-20T09:55:54.965Z,13.30
2022-09-20T09:58:30.661Z,13.20
2022-09-20T10:01:01.312Z,13.50
2022-09-20T10:03:45.965Z,13.70
2022-09-20T10:06:29.566Z,13.60
2022-09-20T10:09:08.404Z,13.60
2022-09-20T10:11:58.631Z,13.90
2022-09-20T10:14:43.504Z,13.80
2022-09-20T10:17:49.409Z,13.80
2022-09-20T10:20:31.195Z,13.90
2022-09-20T10:23:45.054Z,13.70
2022-09-20T10:26:23.772Z,13.80
2022-09-20T10:29:15.711Z,13.70
2022-09-20T10:32:15.381Z,13.60
2022-09-20T10:34:57.268Z,13.20
2022-09-20T10:37:59.479Z,13.20
2022-09-20T10:40:52.528Z,12.80
2022-09-20T10:43:41.912Z,12.50
2022-09-20T10:46:42.933Z,12.40
2022-09-20T10:49:28.245Z,12.20
2022-09-20T10:52:19.892Z,12.30
2022-09-20T10:54:52.658Z,12.20
2022-09-20T10:57:37.108Z,12.30
2022-09-20T11:00:20.095Z,12.20
2022-09-20T11:02:55.539Z,12.20
2022-09-20T11:05:46.343Z,12.20
2022-09-20T11:08:22.715Z,12.30
2022-09-20T11:10:54.137Z,12.30
2022-09-20T11:13:30.693Z,12.20
2022-09-20T11:16:23.187Z,12.20
2022-09-20T11:19:31.465Z,12.30
2022-09-20T11:22:08.596Z,12.20
2022-09-20T11:24:51.717Z,12.20
2022-09-20T11:27:29.589Z,12.30
2022-09-20T11:30:24.805Z,12.30
2022-09-20T11:32:53.875Z,12.30
2022-09-20T11:35:48.217Z,12.50
2022-09-20T11:38:15.016Z,12.30
2022-09-20T11:40:48.208Z,12.20
2022-09-20T11:43:18.398Z,12.20
2022-09-20T11:45:47.915Z,12.10
2022-09-20T11:48:36.507Z,12.00
2022-09-20T11:51:31.337Z,11.80
2022-09-20T11:54:29.118Z,11.80
2022-09-20T11:56:57.490Z,11.70
2022-09-20T11:59:42.275Z,11.90
2022-09-20T12:02:28.383Z,11.90
2022-09-20T12:04:56.649Z,12.00
2022-09-20T12:07:25.008Z,12.00
2022-09-20T12:10:01.185Z,12.00
2022-09-20T12:12:45.289Z,11.90
2022-09-20T12:15:32.293Z,12.00
2022-09-20T12:18:15.632Z,11.90
2022-09-20T12:20:42.618Z,11.90
2022-09-20T12:23:38.231Z,12.00
2022-09-20T12:26:06.065Z,11.90
2022-09-20T12:28:34.928Z,12.00
2022-09-20T12:31:32.405Z,11.90
2022-09-20T12:34:05.256Z,11.80
2022-09-20T12:36:38.275Z,11.80
2022-09-20T12:39:06.774Z,11.70
2022-09-20T12:42:01.437Z,11.60
2022-09-20T12:44:28.480Z,11.80
2022-09-20T12:47:10.705Z,11.90
2022-09-20T12:50:02.051Z,12.20
2022-09-20T12:53:01.170Z,12.30
2022-09-20T12:55:30.832Z,12.30
2022-09-20T12:58:02.694Z,12.20
2022-09-20T13:00:40.622Z,12.00
2022-09-20T13:03:28.681Z,12.00
2022-09-20T13:06:07.359Z,12.10
2022-09-20T13:08:51.763Z,12.10
2022-09-20T13:11:39.175Z,12.10
2022-09-20T13:14:31.517Z,12.10
2022-09-20T13:17:24.926Z,12.20
2022-09-20T13:19:52.558Z,12.20
2022-09-20T13:22:37.030Z,12.30
2022-09-20T13:25:07.189Z,12.30
2022-09-20T13:27:38.068Z,12.30
2022-09-20T13:30:17.531Z,12.30
2022-09-20T13:32:44.834Z,12.20
2022-09-20T13:35:16.821Z,12.20
2022-09-20T13:37:55.570Z,12.20
2022-09-20T13:40:24.083Z,12.20
2022-09-20T13:43:12.873Z,12.30
2022-09-20T13:45:42.768Z,12.30
2022-09-20T13:48:10.222Z,12.30
2022-09-20T13:50:44.898Z,12.20
2022-09-20T13:53:33.587Z,12.10
2022-09-20T13:56:30.058Z,12.10
2022-09-20T13:59:00.951Z,12.10
2022-09-20T14:01:33.978Z,11.90
2022-09-20T14:04:08.239Z,12.00
2022-09-20T14:06:35.806Z,12.00
2022-09-20T14:09:10.411Z,12.00
2022-09-20T14:11:38.936Z,12.10
2022-09-20T14:14:06.293Z,12.10
2022-09-20T14:16:45.121Z,12.10
2022-09-20T14:19:18.395Z,12.00
2022-09-20T14:21:45.840Z,12.00
2022-09-20T14:24:35.581Z,12.00
2022-09-20T14:27:04.930Z,12.10
2022-09-20T14:29:34.641Z,12.00
2022-09-20T14:32:19.134Z,12.10
2022-09-20T14:34:48.935Z,12.20
2022-09-20T14:37:25.875Z,12.10
2022-09-20T14:39:58.270Z,12.10
2022-09-20T14:42:50.200Z,11.90
2022-09-20T14:45:39.322Z,12.00
2022-09-20T14:48:11.552Z,12.00
2022-09-20T14:50:43.542Z,12.00
2022-09-20T14:53:10.872Z,12.00
2022-09-20T14:55:59.486Z,11.90
2022-09-20T14:58:26.483Z,11.90
2022-09-20T15:01:02.661Z,11.80
2022-09-20T15:03:38.712Z,11.80
2022-09-20T15:06:12.832Z,11.80
2022-09-20T15:08:44.122Z,11.80
2022-09-20T15:11:18.179Z,11.90
2022-09-20T15:13:45.501Z,11.80
2022-09-20T15:16:14.813Z,11.80
2022-09-20T15:18:43.183Z,11.90
2022-09-20T15:21:13.335Z,12.00
2022-09-20T15:23:40.510Z,11.90
2022-09-20T15:26:09.913Z,12.00
2022-09-20T15:28:36.946Z,12.10
2022-09-20T15:31:03.781Z,12.00
2022-09-20T15:33:32.315Z,12.00
2022-09-20T15:36:02.012Z,12.00
2022-09-20T15:38:28.763Z,12.00
2022-09-20T15:40:55.501Z,11.90
2022-09-20T15:43:26.331Z,11.90
2022-09-20T15:45:55.740Z,11.90
2022-09-20T15:48:24.988Z,11.80
2022-09-20T15:51:01.894Z,11.90
2022-09-20T15:53:37.523Z,11.90
2022-09-20T15:56:24.134Z,11.90
2022-09-20T15:59:04.929Z,11.90
2022-09-20T16:01:38.134Z,11.90
2022-09-20T16:04:07.235Z,11.90
2022-09-20T16:06:34.493Z,11.80
2022-09-20T16:09:01.346Z,11.90
2022-09-20T16:11:29.800Z,11.80
2022-09-20T16:13:58.707Z,11.70
2022-09-20T16:16:27.534Z,11.70
2022-09-20T16:19:13.305Z,11.70
2022-09-20T16:21:41.969Z,11.70
2022-09-20T16:24:09.811Z,11.70
2022-09-20T16:26:37.925Z,11.70
2022-09-20T16:29:05.096Z,11.70
2022-09-20T16:31:47.694Z,11.70
2022-09-20T16:34:21.740Z,11.80
2022-09-20T16:36:50.868Z,11.70
2022-09-20T16:39:19.269Z,11.70
2022-09-20T16:41:48.272Z,11.80
2022-09-20T16:44:15.793Z,11.80
2022-09-20T16:46:42.538Z,11.80
2022-09-20T16:49:10.905Z,11.80
2022-09-20T16:51:40.185Z,11.80
2022-09-20T16:54:11.714Z,11.80
2022-09-20T16:56:51.190Z,11.70
2022-09-20T16:59:23.108Z,11.70
2022-09-20T17:01:50.726Z,11.60
2022-09-20T17:04:19.001Z,11.60
2022-09-20T17:06:46.698Z,11.60
2022-09-20T17:09:14.706Z,11.60
2022-09-20T17:11:45.676Z,11.50
2022-09-20T17:14:13.476Z,11.60
2022-09-20T17:16:42.180Z,11.50
2022-09-20T17:19:14.279Z,11.60
2022-09-20T17:21:48.980Z,11.50
2022-09-20T17:24:17.807Z,11.50
2022-09-20T17:26:45.693Z,11.50
2022-09-20T17:29:15.279Z,11.50
2022-09-20T17:31:48.755Z,11.50
2022-09-20T17:34:21.518Z,11.50
2022-09-20T17:36:49.161Z,11.50
2022-09-20T17:39:16.513Z,11.40
2022-09-20T17:41:46.434Z,11.40
2022-09-20T17:44:14.001Z,11.30
2022-09-20T17:46:45.419Z,11.40
2022-09-20T17:49:14.532Z,11.20
2022-09-20T17:51:43.972Z,11.10
2022-09-20T17:54:13.886Z,11.20
2022-09-20T17:56:43.549Z,11.10
2022-09-20T17:59:12.039Z,11.10
2022-09-20T18:01:40.313Z,11.20
2022-09-20T18:04:07.860Z,11.20
2022-09-20T18:06:42.326Z,11.20
2022-09-20T18:09:11.984Z,11.30
2022-09-20T18:11:48.669Z,11.30
2022-09-20T18:14:20.466Z,11.30
2022-09-20T18:16:47.509Z,11.30
2022-09-20T18:19:16.225Z,11.30
2022-09-20T18:21:43.875Z,11.40
2022-09-20T18:24:11.611Z,11.40
2022-09-20T18:26:39.336Z,11.40
2022-09-20T18:29:06.250Z,11.40
2022-09-20T18:31:43.352Z,11.40
2022-09-20T18:34:17.840Z,11.30
2022-09-20T18:36:48.442Z,11.30
2022-09-20T18:39:15.243Z,11.30
2022-09-20T18:41:43.135Z,11.40
2022-09-20T18:44:13.600Z,11.40
2022-09-20T18:46:40.652Z,11.30
2022-09-20T18:49:09.702Z,11.30
2022-09-20T18:51:40.055Z,11.30
2022-09-20T18:54:10.625Z,11.30
2022-09-20T18:56:39.376Z,11.20
2022-09-20T18:59:13.035Z,11.20
2022-09-20T19:01:55.474Z,11.20
2022-09-20T19:04:37.494Z,11.20
2022-09-20T19:07:17.011Z,11.10
2022-09-20T19:09:53.335Z,11.10
2022-09-20T19:12:29.293Z,11.20
2022-09-20T19:15:05.648Z,11.10
2022-09-20T19:17:54.108Z,11.10
2022-09-20T19:20:45.772Z,11.20
2022-09-20T19:23:36.850Z,11.20
2022-09-20T19:26:27.226Z,11.20
2022-09-20T19:28:57.007Z,11.20
2022-09-20T19:31:32.202Z,11.30
2022-09-20T19:34:01.518Z,11.30
2022-09-20T19:36:46.350Z,11.30
2022-09-20T19:39:22.671Z,11.30
2022-09-20T19:42:08.945Z,11.10
2022-09-20T19:44:35.850Z,11.10
2022-09-20T19:47:20.373Z,11.20
2022-09-20T19:50:15.807Z,11.20
2022-09-20T19:52:44.050Z,11.30
2022-09-20T19:55:13.350Z,11.40
2022-09-20T19:57:46.955Z,11.40
2022-09-20T20:00:19.765Z,11.40
2022-09-20T20:02:47.673Z,11.30
2022-09-20T20:05:19.812Z,11.30
2022-09-20T20:07:55.648Z,11.40
2022-09-20T20:10:45.352Z,11.40
2022-09-20T20:13:37.951Z,11.30
2022-09-20T20:16:13.197Z,11.30
2022-09-20T20:19:10.924Z,11.30
2022-09-20T20:21:58.925Z,11.30
2022-09-20T20:24:37.973Z,11.30
2022-09-20T20:27:04.763Z,11.30
2022-09-20T20:29:31.559Z,11.30
2022-09-20T20:31:58.315Z,11.30
2022-09-20T20:34:26.525Z,11.40
2022-09-20T20:37:00.939Z,11.40
2022-09-20T20:39:31.579Z,11.40
2022-09-20T20:42:02.829Z,11.30
2022-09-20T20:44:35.458Z,11.30
2022-09-20T20:47:03.705Z,11.40
2022-09-20T20:49:30.972Z,11.30
2022-09-20T20:51:58.533Z,11.20
2022-09-20T20:54:26.114Z,11.20
2022-09-20T20:56:52.841Z,11.20
2022-09-20T20:59:19.600Z,11.30
2022-09-20T21:01:46.584Z,11.20
2022-09-20T21:04:15.610Z,11.20
2022-09-20T21:06:42.635Z,11.20
2022-09-20T21:09:10.555Z,11.20
2022-09-20T21:11:39.478Z,11.10
2022-09-20T21:14:07.412Z,11.10
2022-09-20T21:16:36.571Z,11.10
2022-09-20T21:19:05.689Z,11.10
2022-09-20T21:21:35.339Z,11.10
2022-09-20T21:24:04.882Z,11.10
2022-09-20T21:26:33.780Z,11.20
2022-09-20T21:29:02.709Z,11.10
2022-09-20T21:31:35.957Z,11.10
2022-09-20T21:34:05.861Z,11.00
2022-09-20T21:36:33.880Z,11.00
2022-09-20T21:39:00.830Z,11.00
2022-09-20T21:41:30.406Z,10.80
2022-09-20T21:44:00.166Z,11.00
2022-09-20T21:46:36.098Z,10.90
2022-09-20T21:49:05.830Z,10.90
2022-09-20T21:51:33.637Z,10.80
2022-09-20T21:54:02.010Z,10.90
2022-09-20T21:56:31.566Z,11.00
2022-09-20T21:58:59.370Z,10.90
2022-09-20T22:01:27.861Z,10.90
2022-09-20T22:03:58.956Z,10.90
2022-09-20T22:06:28.753Z,10.90
2022-09-20T22:09:03.742Z,10.90
2022-09-20T22:11:33.933Z,10.90
2022-09-20T22:14:00.732Z,10.90
2022-09-20T22:16:32.315Z,10.80
2022-09-20T22:19:00.526Z,10.80
2022-09-20T22:21:32.562Z,10.80
2022-09-20T22:24:02.704Z,10.90
2022-09-20T22:26:32.117Z,10.90
2022-09-20T22:28:58.934Z,10.90
2022-09-20T22:31:28.469Z,10.80
2022-09-20T22:33:57.841Z,10.90
2022-09-20T22:36:27.320Z,10.80
2022-09-20T22:38:54.610Z,10.90
2022-09-20T22:41:21.806Z,10.90
2022-09-20T22:43:48.999Z,11.00
2022-09-20T22:46:21.459Z,11.00
2022-09-20T22:48:49.143Z,11.00
2022-09-20T22:51:18.235Z,10.90
2022-09-20T22:53:45.978Z,10.90
2022-09-20T22:56:18.249Z,11.00
2022-09-20T22:58:50.278Z,10.90
2022-09-20T23:01:22.971Z,11.00
2022-09-20T23:03:56.067Z,10.90
2022-09-20T23:06:31.691Z,10.90
2022-09-20T23:09:02.970Z,10.80
2022-09-20T23:11:29.923Z,10.80
2022-09-20T23:13:59.084Z,10.90
2022-09-20T23:16:28.512Z,10.80
2022-09-20T23:18:56.479Z,10.90
2022-09-20T23:21:24.089Z,10.90
2022-09-20T23:23:55.924Z,11.00
2022-09-20T23:26:23.224Z,10.90
2022-09-20T23:29:01.354Z,10.90
2022-09-20T23:31:29.567Z,10.80
2022-09-20T23:34:01.903Z,10.80
2022-09-20T23:36:30.975Z,10.80
2022-09-20T23:38:57.964Z,10.80
2022-09-20T23:41:26.664Z,10.80
2022-09-20T23:43:53.495Z,10.80
2022-09-20T23:46:24.470Z,10.90
2022-09-20T23:48:52.331Z,10.90
2022-09-20T23:51:24.782Z,10.90
2022-09-20T23:53:52.702Z,10.80
2022-09-20T23:56:21.448Z,10.80
2022-09-20T23:58:48.657Z,10.80
